createdAt,value
2019-03-13T00:02:17.201Z,1.87
2019-03-13T00:04:44.708Z,2.30
2019-03-13T00:07:12.167Z,2.60
2019-03-13T00:09:39.561Z,2.33
2019-03-13T00:12:06.994Z,2.70
2019-03-13T00:14:34.470Z,2.60
2019-03-13T00:17:01.866Z,2.20
2019-03-13T00:19:29.287Z,2.10
2019-03-13T00:21:56.722Z,2.30
2019-03-13T00:24:24.163Z,2.00
2019-03-13T00:26:51.620Z,2.23
2019-03-13T00:29:19.081Z,3.43
2019-03-13T00:31:46.477Z,2.20
2019-03-13T00:34:13.882Z,2.27
2019-03-13T00:36:41.316Z,1.80
2019-03-13T00:39:08.757Z,2.83
2019-03-13T00:41:36.186Z,1.90
2019-03-13T00:44:03.613Z,2.10
2019-03-13T00:46:31.038Z,2.37
2019-03-13T00:48:58.446Z,2.17
2019-03-13T00:51:25.935Z,2.23
2019-03-13T00:53:53.334Z,2.03
2019-03-13T00:56:20.757Z,1.97
2019-03-13T00:58:48.200Z,2.23
2019-03-13T01:01:30.414Z,1.80
2019-03-13T01:03:57.844Z,2.30
2019-03-13T01:06:25.233Z,2.50
2019-03-13T01:08:52.749Z,2.40
2019-03-13T01:11:20.174Z,2.30
2019-03-13T01:13:47.594Z,2.47
2019-03-13T01:16:15.012Z,2.67
2019-03-13T01:18:42.436Z,2.80
2019-03-13T01:21:09.839Z,2.70
2019-03-13T01:23:37.268Z,3.23
2019-03-13T01:26:04.693Z,2.83
2019-03-13T01:28:32.093Z,3.60
2019-03-13T01:30:59.515Z,2.57
2019-03-13T01:33:26.947Z,3.00
2019-03-13T01:35:54.357Z,3.50
2019-03-13T01:38:21.775Z,3.90
2019-03-13T01:40:49.182Z,2.67
2019-03-13T01:43:16.616Z,2.80
2019-03-13T01:45:44.053Z,2.87
2019-03-13T01:48:11.438Z,2.50
2019-03-13T01:50:38.882Z,2.90
2019-03-13T01:53:06.279Z,3.30
2019-03-13T01:55:33.710Z,3.20
2019-03-13T01:58:01.112Z,3.57
2019-03-13T02:00:28.540Z,3.13
2019-03-13T02:02:55.954Z,3.63
2019-03-13T02:05:23.367Z,2.40
2019-03-13T02:07:50.771Z,3.13
2019-03-13T02:10:18.200Z,2.30
2019-03-13T02:12:45.629Z,3.07
2019-03-13T02:15:18.738Z,2.90
2019-03-13T02:17:46.164Z,2.33
2019-03-13T02:20:13.564Z,3.07
2019-03-13T02:22:41.052Z,2.97
2019-03-13T02:25:08.446Z,2.57
2019-03-13T02:27:35.844Z,2.70
2019-03-13T02:30:03.289Z,2.80
2019-03-13T02:32:30.682Z,2.23
2019-03-13T02:34:58.110Z,2.70
2019-03-13T02:37:25.520Z,2.50
2019-03-13T02:39:52.942Z,2.40
2019-03-13T02:42:20.372Z,2.33
2019-03-13T02:44:47.781Z,2.67
2019-03-13T02:47:18.759Z,2.23
2019-03-13T02:49:42.618Z,2.37
2019-03-13T02:52:10.047Z,2.43
2019-03-13T02:54:37.450Z,3.77
2019-03-13T02:57:04.866Z,2.60
2019-03-13T02:59:32.280Z,2.87
2019-03-13T03:01:59.705Z,2.40
2019-03-13T03:04:27.097Z,2.73
2019-03-13T03:06:54.535Z,2.90
2019-03-13T03:09:21.952Z,2.60
2019-03-13T03:11:49.455Z,3.00
2019-03-13T03:14:16.881Z,2.33
2019-03-13T03:16:44.280Z,2.73
2019-03-13T03:19:11.696Z,3.00
2019-03-13T03:21:39.132Z,2.77
2019-03-13T03:24:06.553Z,2.77
2019-03-13T03:26:33.974Z,3.27
2019-03-13T03:29:01.374Z,4.17
2019-03-13T03:31:28.806Z,3.17
2019-03-13T03:33:56.243Z,3.60
2019-03-13T03:36:23.648Z,3.00
2019-03-13T03:38:51.070Z,3.83
2019-03-13T03:41:18.495Z,4.23
2019-03-13T03:43:45.940Z,3.63
2019-03-13T03:46:13.336Z,3.77
2019-03-13T03:48:40.765Z,4.80
2019-03-13T03:51:08.181Z,4.00
2019-03-13T03:53:35.629Z,3.50
2019-03-13T03:56:03.022Z,3.13
2019-03-13T03:58:30.426Z,3.57
2019-03-13T04:00:57.871Z,3.27
2019-03-13T04:03:25.279Z,3.50
2019-03-13T04:05:52.710Z,3.30
2019-03-13T04:08:20.169Z,3.47
2019-03-13T04:10:47.566Z,3.90
2019-03-13T04:13:14.966Z,4.20
2019-03-13T04:15:42.412Z,3.53
2019-03-13T04:18:09.838Z,3.63
2019-03-13T04:20:37.251Z,3.47
2019-03-13T04:23:05.104Z,4.33
2019-03-13T04:25:32.539Z,3.33
2019-03-13T04:28:00.077Z,4.20
2019-03-13T04:30:27.432Z,3.70
2019-03-13T04:32:54.793Z,4.03
2019-03-13T04:35:22.195Z,4.17
2019-03-13T04:37:49.630Z,3.77
2019-03-13T04:40:17.045Z,3.50
2019-03-13T04:42:44.447Z,4.13
2019-03-13T04:45:11.873Z,3.53
2019-03-13T04:47:39.309Z,3.10
2019-03-13T04:50:06.722Z,3.53
2019-03-13T04:52:34.140Z,3.60
2019-03-13T04:55:01.583Z,3.53
2019-03-13T04:57:28.993Z,3.37
2019-03-13T04:59:56.416Z,3.00
2019-03-13T05:02:23.835Z,3.33
2019-03-13T05:04:51.277Z,3.80
2019-03-13T05:07:18.681Z,3.23
2019-03-13T05:09:46.119Z,3.73
2019-03-13T05:12:13.538Z,3.73
2019-03-13T05:14:40.935Z,2.73
2019-03-13T05:17:08.354Z,3.70
2019-03-13T05:19:35.783Z,3.50
2019-03-13T05:22:03.213Z,4.43
2019-03-13T05:24:30.614Z,3.83
2019-03-13T05:26:58.059Z,3.17
2019-03-13T05:29:25.455Z,3.27
2019-03-13T05:31:52.914Z,4.50
2019-03-13T05:34:20.337Z,3.43
2019-03-13T05:36:47.780Z,3.53
2019-03-13T05:39:15.195Z,3.77
2019-03-13T05:41:42.614Z,4.00
2019-03-13T05:44:10.052Z,3.87
2019-03-13T05:46:37.524Z,4.27
2019-03-13T05:49:04.889Z,4.50
2019-03-13T05:51:32.285Z,3.63
2019-03-13T05:53:59.697Z,3.03
2019-03-13T05:56:27.132Z,3.20
2019-03-13T05:58:54.538Z,4.27
2019-03-13T06:01:21.965Z,4.33
2019-03-13T06:03:49.363Z,3.73
2019-03-13T06:06:16.803Z,3.90
2019-03-13T06:08:44.277Z,3.80
2019-03-13T06:11:11.687Z,3.90
2019-03-13T06:13:39.090Z,3.13
2019-03-13T06:16:06.520Z,4.90
2019-03-13T06:18:33.939Z,4.70
2019-03-13T06:21:01.366Z,3.73
2019-03-13T06:23:28.773Z,4.57
2019-03-13T06:25:56.207Z,3.40
2019-03-13T06:28:23.603Z,2.97
2019-03-13T06:30:50.997Z,4.60
2019-03-13T06:33:18.426Z,4.33
2019-03-13T06:35:45.879Z,4.33
2019-03-13T06:38:13.306Z,3.17
2019-03-13T06:40:40.716Z,4.00
2019-03-13T06:43:08.145Z,3.33
2019-03-13T06:45:35.572Z,4.43
2019-03-13T06:48:02.985Z,3.90
2019-03-13T06:50:30.383Z,3.37
2019-03-13T06:52:57.794Z,3.20
2019-03-13T06:55:25.210Z,2.80
2019-03-13T06:57:52.609Z,2.63
2019-03-13T07:00:25.584Z,3.40
2019-03-13T07:02:52.989Z,3.40
2019-03-13T07:05:20.391Z,3.63
2019-03-13T07:07:50.383Z,3.20
2019-03-13T07:10:17.805Z,3.63
2019-03-13T07:12:45.224Z,3.57
2019-03-13T07:15:12.665Z,3.37
2019-03-13T07:17:55.215Z,4.73
2019-03-13T07:20:34.671Z,3.50
2019-03-13T07:23:07.611Z,3.20
2019-03-13T07:25:35.039Z,3.50
2019-03-13T07:28:05.348Z,3.70
2019-03-13T07:30:38.464Z,3.70
2019-03-13T07:33:05.885Z,3.50
2019-03-13T07:35:35.847Z,4.63
2019-03-13T07:38:09.093Z,3.63
2019-03-13T07:40:42.429Z,3.40
2019-03-13T07:43:28.295Z,3.60
2019-03-13T07:46:07.547Z,3.57
2019-03-13T07:48:41.055Z,3.37
2019-03-13T07:51:17.387Z,3.20
2019-03-13T07:53:53.566Z,3.10
2019-03-13T07:56:21.004Z,3.20
2019-03-13T07:58:54.335Z,3.97
2019-03-13T08:01:33.854Z,4.23
2019-03-13T08:04:05.555Z,3.43
2019-03-13T08:06:43.505Z,2.87
2019-03-13T08:09:10.915Z,3.33
2019-03-13T08:11:43.997Z,3.20
2019-03-13T08:14:26.772Z,3.83
2019-03-13T08:16:54.169Z,3.00
2019-03-13T08:19:24.750Z,3.37
2019-03-13T08:21:57.659Z,3.67
2019-03-13T08:24:40.387Z,2.43
2019-03-13T08:27:25.898Z,3.03
2019-03-13T08:29:59.080Z,3.67
2019-03-13T08:32:32.236Z,3.27
2019-03-13T08:34:59.690Z,3.27
2019-03-13T08:37:35.739Z,3.37
2019-03-13T08:40:15.430Z,3.13
2019-03-13T08:42:55.089Z,3.43
2019-03-13T08:45:22.512Z,3.30
2019-03-13T08:47:52.560Z,3.33
2019-03-13T08:50:38.238Z,3.17
2019-03-13T08:53:05.641Z,2.80
2019-03-13T08:55:51.614Z,2.83
2019-03-13T08:58:24.320Z,3.33
2019-03-13T09:00:54.565Z,2.33
2019-03-13T09:03:24.965Z,2.87
2019-03-13T09:06:01.446Z,3.87
2019-03-13T09:08:46.899Z,3.67
2019-03-13T09:11:32.563Z,3.13
2019-03-13T09:14:05.276Z,3.07
2019-03-13T09:16:50.651Z,2.60
2019-03-13T09:19:19.013Z,3.57
2019-03-13T09:21:58.411Z,3.73
2019-03-13T09:24:28.543Z,3.37
2019-03-13T09:26:58.462Z,3.03
2019-03-13T09:29:35.043Z,3.33
2019-03-13T09:32:05.188Z,3.27
2019-03-13T09:34:32.591Z,3.33
2019-03-13T09:37:08.778Z,4.03
2019-03-13T09:39:45.076Z,3.43
2019-03-13T09:42:12.477Z,3.07
2019-03-13T09:44:42.618Z,3.07
2019-03-13T09:47:22.128Z,4.00
2019-03-13T09:50:07.852Z,3.20
2019-03-13T09:52:41.240Z,3.20
2019-03-13T09:55:11.115Z,3.93
2019-03-13T09:57:56.651Z,3.10
2019-03-13T10:00:44.466Z,3.00
2019-03-13T10:03:28.237Z,4.27
2019-03-13T10:06:10.995Z,3.20
2019-03-13T10:08:43.906Z,3.30
2019-03-13T10:11:12.557Z,3.93
2019-03-13T10:13:50.761Z,4.00
2019-03-13T10:16:24.402Z,3.07
2019-03-13T10:18:54.831Z,3.37
2019-03-13T10:21:22.239Z,3.10
2019-03-13T10:23:49.654Z,4.30
2019-03-13T10:26:22.801Z,4.20
2019-03-13T10:28:50.199Z,3.97
2019-03-13T10:31:23.607Z,3.90
2019-03-13T10:33:51.016Z,3.63
2019-03-13T10:36:18.408Z,3.80
2019-03-13T10:38:48.814Z,3.67
2019-03-13T10:41:34.320Z,3.60
2019-03-13T10:44:10.606Z,3.83
2019-03-13T10:46:43.721Z,4.77
2019-03-13T10:49:11.154Z,3.70
2019-03-13T10:51:47.638Z,4.00
2019-03-13T10:54:24.307Z,3.80
2019-03-13T10:57:09.833Z,3.60
2019-03-13T10:59:49.334Z,4.10
2019-03-13T11:02:28.891Z,4.70
2019-03-13T11:05:08.453Z,4.03
2019-03-13T11:07:35.876Z,4.27
2019-03-13T11:10:21.189Z,5.57
2019-03-13T11:12:51.761Z,5.13
2019-03-13T11:15:37.392Z,4.90
2019-03-13T11:18:13.725Z,5.80
2019-03-13T11:20:41.165Z,5.60
2019-03-13T11:23:23.878Z,5.40
2019-03-13T11:28:35.605Z,4.57
2019-03-13T11:31:11.794Z,5.30
2019-03-13T11:33:48.287Z,4.97
2019-03-13T11:36:31.018Z,5.00
2019-03-13T11:39:16.522Z,5.53
2019-03-13T11:41:55.935Z,4.90
2019-03-13T11:44:23.336Z,5.20
2019-03-13T11:46:53.685Z,3.97
2019-03-13T11:49:21.091Z,4.77
2019-03-13T11:51:48.495Z,4.77
2019-03-13T11:54:21.787Z,4.70
2019-03-13T11:56:52.200Z,4.93
2019-03-13T11:59:31.525Z,4.73
2019-03-13T12:02:01.977Z,5.50
2019-03-13T12:04:29.381Z,4.63
2019-03-13T12:07:14.948Z,4.33
2019-03-13T12:09:48.206Z,4.53
2019-03-13T12:12:33.630Z,4.40
2019-03-13T12:15:19.293Z,4.77
2019-03-13T12:17:46.689Z,4.60
2019-03-13T12:20:16.867Z,5.50
2019-03-13T12:22:49.979Z,5.57
2019-03-13T12:25:20.010Z,5.77
2019-03-13T12:27:47.436Z,5.30
2019-03-13T12:30:14.817Z,4.50
2019-03-13T12:32:42.250Z,4.60
2019-03-13T12:35:18.539Z,4.57
2019-03-13T12:37:51.712Z,4.60
2019-03-13T12:40:25.094Z,5.40
2019-03-13T12:42:58.744Z,5.97
2019-03-13T12:45:26.155Z,5.00
2019-03-13T12:47:53.596Z,5.90
2019-03-13T12:50:23.650Z,5.43
2019-03-13T12:53:09.171Z,5.20
2019-03-13T12:55:36.581Z,4.37
2019-03-13T12:58:04.014Z,6.10
2019-03-13T13:00:31.417Z,4.30
2019-03-13T13:02:58.848Z,4.40
2019-03-13T13:05:32.194Z,5.07
2019-03-13T13:08:14.574Z,4.03
2019-03-13T13:10:41.969Z,5.33
2019-03-13T13:13:18.443Z,3.73
2019-03-13T13:15:57.521Z,3.70
2019-03-13T13:18:40.092Z,3.90
2019-03-13T13:21:07.521Z,3.07
2019-03-13T13:23:34.958Z,3.60
2019-03-13T13:26:02.462Z,3.70
2019-03-13T13:28:29.794Z,3.97
2019-03-13T13:30:57.231Z,3.80
2019-03-13T13:33:24.621Z,3.87
2019-03-13T13:35:52.038Z,4.10
2019-03-13T13:38:19.467Z,3.83
2019-03-13T13:40:46.889Z,4.03
2019-03-13T13:43:14.308Z,4.50
2019-03-13T13:45:41.729Z,3.70
2019-03-13T13:48:09.146Z,2.90
2019-03-13T13:50:36.606Z,3.07
2019-03-13T13:53:04.041Z,3.23
2019-03-13T13:55:31.446Z,3.70
2019-03-13T13:57:58.843Z,4.00
2019-03-13T14:00:26.313Z,3.57
2019-03-13T14:02:53.719Z,3.63
2019-03-13T14:05:21.151Z,4.53
2019-03-13T14:07:48.553Z,3.83
2019-03-13T14:10:15.995Z,3.37
2019-03-13T14:12:43.420Z,3.47
2019-03-13T14:15:13.533Z,3.60
2019-03-13T14:17:40.965Z,4.63
2019-03-13T14:20:08.480Z,4.47
2019-03-13T14:22:35.917Z,3.10
2019-03-13T14:25:03.331Z,3.80
2019-03-13T14:27:30.760Z,3.97
2019-03-13T14:29:58.173Z,2.87
2019-03-13T14:32:25.615Z,2.80
2019-03-13T14:34:53.048Z,3.00
2019-03-13T14:37:20.469Z,3.57
2019-03-13T14:39:47.896Z,3.87
2019-03-13T14:42:15.405Z,3.73
2019-03-13T14:44:42.823Z,3.40
2019-03-13T14:47:10.233Z,3.53
2019-03-13T14:49:37.669Z,3.20
2019-03-13T14:52:05.101Z,4.43
2019-03-13T14:54:32.545Z,3.37
2019-03-13T14:56:59.963Z,4.17
2019-03-13T14:59:27.380Z,2.73
2019-03-13T15:01:54.807Z,3.33
2019-03-13T15:04:22.228Z,2.87
2019-03-13T15:06:49.669Z,2.43
2019-03-13T15:09:17.083Z,2.30
2019-03-13T15:11:44.573Z,1.90
2019-03-13T15:14:11.970Z,2.90
2019-03-13T15:16:39.397Z,2.60
2019-03-13T15:19:06.802Z,2.37
2019-03-13T15:21:34.243Z,2.50
2019-03-13T15:24:01.671Z,2.63
2019-03-13T15:26:29.101Z,3.93
2019-03-13T15:28:56.513Z,3.20
2019-03-13T15:31:23.937Z,2.30
2019-03-13T15:33:51.387Z,2.30
2019-03-13T15:36:18.808Z,3.03
2019-03-13T15:38:46.279Z,2.40
2019-03-13T15:41:13.720Z,3.33
2019-03-13T15:43:41.149Z,2.60
2019-03-13T15:46:08.584Z,2.33
2019-03-13T15:48:36.045Z,3.10
2019-03-13T15:51:03.470Z,2.90
2019-03-13T15:53:30.868Z,2.73
2019-03-13T15:55:58.287Z,3.07
2019-03-13T15:58:25.723Z,3.00
2019-03-13T16:00:53.141Z,2.90
2019-03-13T16:03:20.581Z,3.20
2019-03-13T16:05:48.052Z,3.13
2019-03-13T16:08:15.478Z,3.23
2019-03-13T16:10:42.921Z,3.20
2019-03-13T16:13:10.366Z,2.67
2019-03-13T16:15:37.774Z,2.67
2019-03-13T16:18:05.195Z,3.77
2019-03-13T16:20:32.661Z,4.00
2019-03-13T16:23:03.015Z,2.90
2019-03-13T16:25:30.468Z,3.57
2019-03-13T16:27:57.879Z,3.13
2019-03-13T16:30:28.124Z,3.60
2019-03-13T16:32:55.487Z,2.97
2019-03-13T16:35:22.897Z,3.40
2019-03-13T16:37:50.353Z,3.37
2019-03-13T16:40:17.760Z,3.10
2019-03-13T16:42:45.193Z,2.97
2019-03-13T16:45:18.569Z,2.83
2019-03-13T16:47:45.982Z,3.27
2019-03-13T16:50:19.605Z,3.00
2019-03-13T16:52:47.086Z,3.33
2019-03-13T16:55:14.517Z,2.80
2019-03-13T16:57:41.963Z,2.57
2019-03-13T17:00:18.559Z,2.83
2019-03-13T17:02:45.977Z,2.73
2019-03-13T17:05:16.068Z,2.40
2019-03-13T17:07:43.509Z,3.00
2019-03-13T17:10:10.984Z,2.77
2019-03-13T17:12:38.404Z,2.70
2019-03-13T17:15:05.874Z,3.23
2019-03-13T17:17:33.295Z,3.00
2019-03-13T17:20:00.742Z,2.70
2019-03-13T17:22:28.091Z,3.13
2019-03-13T17:24:55.527Z,2.70
2019-03-13T17:27:22.992Z,3.00
2019-03-13T17:29:50.431Z,3.40
2019-03-13T17:32:17.846Z,3.27
2019-03-13T17:34:45.309Z,3.67
2019-03-13T17:37:12.724Z,2.93
2019-03-13T17:39:40.148Z,3.20
2019-03-13T17:42:07.586Z,3.50
2019-03-13T17:44:35.002Z,2.47
2019-03-13T17:47:02.530Z,3.63
2019-03-13T17:49:29.873Z,3.50
2019-03-13T17:51:57.296Z,3.93
2019-03-13T17:54:24.750Z,3.87
2019-03-13T17:56:52.192Z,3.73
2019-03-13T17:59:19.601Z,3.13
2019-03-13T18:01:47.068Z,3.27
2019-03-13T18:04:14.554Z,3.83
2019-03-13T18:06:42.011Z,3.47
2019-03-13T18:09:09.415Z,3.67
2019-03-13T18:11:36.826Z,3.13
2019-03-13T18:14:04.687Z,3.23
2019-03-13T18:16:32.110Z,3.33
2019-03-13T18:18:59.545Z,3.60
2019-03-13T18:21:26.959Z,4.07
2019-03-13T18:23:54.405Z,3.03
2019-03-13T18:26:21.926Z,3.37
2019-03-13T18:28:49.382Z,3.10
2019-03-13T18:31:16.811Z,3.20
2019-03-13T18:33:44.228Z,3.13
2019-03-13T18:36:14.038Z,4.33
2019-03-13T18:38:39.072Z,2.53
2019-03-13T18:41:06.523Z,3.07
2019-03-13T18:43:33.962Z,3.00
2019-03-13T18:46:01.379Z,3.63
2019-03-13T18:48:28.785Z,3.37
2019-03-13T18:50:56.226Z,3.40
2019-03-13T18:53:23.639Z,4.10
2019-03-13T18:55:51.080Z,3.70
2019-03-13T18:58:18.519Z,3.77
2019-03-13T19:00:45.962Z,3.43
2019-03-13T19:03:13.411Z,3.07
2019-03-13T19:05:40.912Z,3.57
2019-03-13T19:08:08.302Z,3.53
2019-03-13T19:10:35.729Z,3.60
2019-03-13T19:13:03.214Z,2.80
2019-03-13T19:15:30.613Z,3.63
2019-03-13T19:18:00.470Z,3.30
2019-03-13T19:20:25.541Z,2.67
2019-03-13T19:22:53.034Z,2.90
2019-03-13T19:25:20.470Z,2.80
2019-03-13T19:27:47.886Z,3.10
2019-03-13T19:30:27.184Z,3.00
2019-03-13T19:32:54.663Z,3.43
2019-03-13T19:35:22.083Z,3.40
2019-03-13T19:37:49.521Z,2.83
2019-03-13T19:40:19.496Z,3.63
2019-03-13T19:42:46.999Z,3.07
2019-03-13T19:45:17.189Z,2.50
2019-03-13T19:47:44.620Z,3.13
2019-03-13T19:50:12.062Z,3.33
2019-03-13T19:52:39.540Z,4.37
2019-03-13T19:55:07.036Z,2.97
2019-03-13T19:57:34.446Z,3.73
2019-03-13T20:00:01.914Z,3.37
2019-03-13T20:02:29.341Z,3.60
2019-03-13T20:04:56.762Z,3.60
2019-03-13T20:07:24.210Z,3.50
2019-03-13T20:09:51.640Z,3.00
2019-03-13T20:12:19.076Z,2.77
2019-03-13T20:14:46.569Z,3.33
2019-03-13T20:17:16.195Z,3.23
2019-03-13T20:19:41.377Z,3.70
2019-03-13T20:22:08.815Z,3.53
2019-03-13T20:24:38.685Z,3.43
2019-03-13T20:27:03.682Z,3.63
2019-03-13T20:29:31.103Z,3.47
2019-03-13T20:31:58.539Z,3.53
2019-03-13T20:34:25.945Z,2.60
2019-03-13T20:36:53.553Z,3.30
2019-03-13T20:39:20.964Z,3.30
2019-03-13T20:41:48.485Z,3.23
2019-03-13T20:44:16.131Z,3.67
2019-03-13T20:46:43.604Z,3.13
2019-03-13T20:49:11.122Z,3.27
2019-03-13T20:51:38.590Z,3.37
2019-03-13T20:54:06.066Z,3.50
2019-03-13T20:56:33.528Z,2.97
2019-03-13T20:59:00.951Z,3.33
2019-03-13T21:01:28.363Z,3.30
2019-03-13T21:03:55.862Z,3.37
2019-03-13T21:06:23.327Z,4.13
2019-03-13T21:08:50.756Z,2.80
2019-03-13T21:11:18.298Z,3.40
2019-03-13T21:13:45.683Z,4.03
2019-03-13T21:16:13.141Z,2.93
2019-03-13T21:18:40.568Z,3.13
2019-03-13T21:21:08.005Z,3.07
2019-03-13T21:23:35.445Z,3.00
2019-03-13T21:26:02.936Z,3.20
2019-03-13T21:28:30.371Z,3.40
2019-03-13T21:30:57.795Z,3.37
2019-03-13T21:33:25.205Z,3.63
2019-03-13T21:35:52.703Z,3.10
2019-03-13T21:38:20.081Z,3.17
2019-03-13T21:40:47.499Z,2.97
2019-03-13T21:43:16.340Z,4.97
2019-03-13T21:45:42.397Z,3.47
2019-03-13T21:48:09.832Z,2.87
2019-03-13T21:50:37.239Z,3.83
2019-03-13T21:53:07.936Z,3.40
2019-03-13T21:55:33.348Z,4.03
2019-03-13T21:58:00.840Z,3.40
2019-03-13T22:00:28.311Z,3.00
2019-03-13T22:02:55.712Z,3.57
2019-03-13T22:05:26.033Z,3.27
2019-03-13T22:07:50.563Z,2.90
2019-03-13T22:10:17.977Z,2.93
2019-03-13T22:12:45.436Z,3.27
2019-03-13T22:15:19.125Z,3.50
2019-03-13T22:17:46.527Z,3.43
2019-03-13T22:20:13.989Z,2.53
2019-03-13T22:22:41.455Z,3.07
2019-03-13T22:25:11.822Z,3.43
2019-03-13T22:27:39.309Z,3.03
2019-03-13T22:30:15.608Z,3.07
2019-03-13T22:32:43.047Z,3.10
2019-03-13T22:35:10.457Z,3.53
2019-03-13T22:37:37.876Z,3.63
2019-03-13T22:40:05.277Z,2.90
2019-03-13T22:42:32.698Z,2.90
2019-03-13T22:45:00.171Z,3.47
2019-03-13T22:47:27.550Z,3.03
2019-03-13T22:49:54.976Z,2.93
2019-03-13T22:52:22.385Z,2.87
2019-03-13T22:54:49.805Z,2.30
2019-03-13T22:57:17.231Z,3.00
2019-03-13T22:59:44.671Z,3.53
2019-03-13T23:02:12.070Z,3.23
2019-03-13T23:04:39.474Z,2.40
2019-03-13T23:07:06.907Z,2.20
2019-03-13T23:09:34.315Z,3.10
2019-03-13T23:12:01.745Z,3.13
2019-03-13T23:14:29.148Z,2.33
2019-03-13T23:16:56.585Z,2.90
2019-03-13T23:19:23.998Z,3.17
2019-03-13T23:21:51.437Z,3.13
2019-03-13T23:24:18.836Z,2.83
2019-03-13T23:26:46.259Z,2.77
2019-03-13T23:29:13.657Z,3.97
2019-03-13T23:31:41.077Z,2.80
2019-03-13T23:34:08.492Z,2.97
2019-03-13T23:36:35.927Z,3.10
2019-03-13T23:39:03.355Z,3.20
2019-03-13T23:41:30.754Z,3.00
2019-03-13T23:43:58.179Z,3.10
2019-03-13T23:46:25.605Z,2.93
2019-03-13T23:48:53.202Z,3.33
2019-03-13T23:51:20.436Z,4.57
2019-03-13T23:53:47.879Z,2.93
2019-03-13T23:56:15.298Z,3.53
2019-03-13T23:58:42.725Z,2.80
